createdAt,value
2022-09-28T00:01:32.190Z,8.20
2022-09-28T00:04:02.283Z,8.45
2022-09-28T00:06:31.001Z,9.50
2022-09-28T00:08:59.423Z,10.75
2022-09-28T00:11:28.322Z,10.57
2022-09-28T00:13:59.010Z,6.90
2022-09-28T00:16:29.543Z,12.13
2022-09-28T00:18:57.808Z,17.33
2022-09-28T00:21:32.247Z,9.73
2022-09-28T00:24:23.996Z,7.85
2022-09-28T00:26:56.950Z,7.95
2022-09-28T00:29:36.731Z,9.02
2022-09-28T00:32:08.327Z,11.80
2022-09-28T00:34:40.946Z,6.75
2022-09-28T00:37:10.255Z,11.98
2022-09-28T00:39:41.306Z,7.60
2022-09-28T00:42:22.412Z,11.38
2022-09-28T00:44:51.559Z,10.05
2022-09-28T00:47:31.366Z,4.95
2022-09-28T00:50:09.361Z,10.82
2022-09-28T00:52:49.972Z,8.55
2022-09-28T00:55:23.000Z,8.73
2022-09-28T00:57:56.848Z,10.10
2022-09-28T01:00:25.489Z,7.45
2022-09-28T01:02:53.550Z,8.57
2022-09-28T01:05:22.877Z,10.30
2022-09-28T01:07:51.407Z,13.30
2022-09-28T01:10:19.154Z,8.38
2022-09-28T01:12:47.748Z,7.25
2022-09-28T01:15:16.145Z,9.25
2022-09-28T01:17:53.876Z,9.15
2022-09-28T01:20:51.496Z,9.65
2022-09-28T01:23:42.957Z,10.88
2022-09-28T01:28:53.659Z,10.02
2022-09-28T01:31:29.308Z,9.23
2022-09-28T01:34:12.244Z,12.85
2022-09-28T01:36:47.379Z,6.90
2022-09-28T01:39:38.346Z,12.25
2022-09-28T01:42:12.116Z,8.48
2022-09-28T01:44:44.137Z,10.35
2022-09-28T01:47:15.291Z,9.13
2022-09-28T01:49:59.440Z,7.95
2022-09-28T01:52:48.079Z,9.15
2022-09-28T01:55:35.259Z,11.18
2022-09-28T01:58:16.397Z,9.27
2022-09-28T02:00:52.133Z,7.78
2022-09-28T02:03:42.361Z,7.20
2022-09-28T02:06:29.745Z,8.45
2022-09-28T02:09:04.519Z,9.10
2022-09-28T02:11:47.458Z,8.55
2022-09-28T02:14:18.151Z,7.72
2022-09-28T02:16:54.389Z,7.13
2022-09-28T02:19:34.858Z,11.00
2022-09-28T02:22:10.459Z,11.50
2022-09-28T02:24:51.794Z,9.07
2022-09-28T02:27:36.209Z,7.68
2022-09-28T02:30:06.706Z,8.40
2022-09-28T02:32:40.328Z,9.10
2022-09-28T02:35:13.669Z,7.63
2022-09-28T02:37:42.003Z,11.35
2022-09-28T02:40:23.981Z,7.03
2022-09-28T02:43:13.788Z,10.50
2022-09-28T02:45:56.667Z,11.57
2022-09-28T02:48:44.057Z,8.65
2022-09-28T02:51:59.883Z,9.55
2022-09-28T02:54:46.288Z,7.15
2022-09-28T02:57:42.204Z,7.43
2022-09-28T03:00:20.734Z,10.85
2022-09-28T03:03:19.017Z,7.63
2022-09-28T03:05:58.520Z,10.15
2022-09-28T03:08:53.598Z,10.63
2022-09-28T03:11:40.380Z,8.25
2022-09-28T03:14:11.331Z,12.07
2022-09-28T03:16:47.425Z,5.05
2022-09-28T03:19:23.840Z,9.23
2022-09-28T03:21:58.919Z,18.17
2022-09-28T03:24:30.037Z,10.40
2022-09-28T03:26:57.837Z,9.32
2022-09-28T03:29:26.339Z,9.35
2022-09-28T03:32:00.319Z,10.48
2022-09-28T03:34:28.063Z,8.27
2022-09-28T03:36:56.149Z,6.82
2022-09-28T03:39:24.375Z,8.80
2022-09-28T03:41:52.364Z,13.85
2022-09-28T03:44:21.803Z,8.77
2022-09-28T03:46:51.192Z,7.75
2022-09-28T03:49:19.000Z,8.05
2022-09-28T03:51:49.710Z,13.88
2022-09-28T03:54:20.592Z,8.73
2022-09-28T03:56:48.394Z,9.88
2022-09-28T03:59:17.931Z,10.05
2022-09-28T04:01:49.630Z,9.43
2022-09-28T04:04:20.004Z,8.77
2022-09-28T04:06:48.093Z,9.37
2022-09-28T04:09:21.516Z,10.77
2022-09-28T04:12:03.269Z,7.97
2022-09-28T04:14:34.083Z,5.75
2022-09-28T04:17:02.107Z,9.35
2022-09-28T04:19:33.380Z,10.87
2022-09-28T04:22:20.502Z,11.27
2022-09-28T04:24:48.389Z,8.88
2022-09-28T04:27:34.765Z,11.32
2022-09-28T04:30:05.431Z,6.88
2022-09-28T04:32:35.448Z,9.23
2022-09-28T04:35:07.279Z,10.25
2022-09-28T04:37:35.204Z,11.88
2022-09-28T04:40:04.549Z,12.10
2022-09-28T04:42:33.360Z,8.90
2022-09-28T04:45:02.258Z,7.97
2022-09-28T04:47:32.998Z,8.27
2022-09-28T04:50:21.749Z,9.73
2022-09-28T04:53:15.670Z,10.77
2022-09-28T04:55:43.794Z,7.30
2022-09-28T04:58:11.534Z,9.10
2022-09-28T05:00:40.226Z,8.98
2022-09-28T05:06:28.658Z,11.07
2022-09-28T05:09:02.857Z,8.48
2022-09-28T05:11:30.712Z,12.65
2022-09-28T05:14:02.309Z,8.50
2022-09-28T05:16:33.751Z,15.00
2022-09-28T05:19:37.060Z,14.57
2022-09-28T05:22:07.299Z,9.80
2022-09-28T05:24:40.276Z,11.13
2022-09-28T05:27:08.794Z,14.05
2022-09-28T05:29:36.834Z,13.57
2022-09-28T05:32:19.910Z,10.20
2022-09-28T05:35:01.232Z,16.23
2022-09-28T05:37:41.174Z,10.48
2022-09-28T05:40:09.704Z,12.85
2022-09-28T05:42:39.215Z,8.90
2022-09-28T05:45:08.345Z,9.95
2022-09-28T05:47:41.760Z,10.77
2022-09-28T05:50:16.174Z,8.68
2022-09-28T05:52:44.511Z,12.55
2022-09-28T05:55:13.203Z,8.70
2022-09-28T05:57:43.377Z,15.80
2022-09-28T06:00:12.111Z,6.63
2022-09-28T06:02:56.732Z,9.85
2022-09-28T06:05:29.298Z,8.82
2022-09-28T06:07:58.115Z,11.40
2022-09-28T06:10:27.504Z,11.90
2022-09-28T06:13:01.052Z,7.95
2022-09-28T06:15:31.002Z,5.65
2022-09-28T06:18:07.100Z,7.85
2022-09-28T06:23:17.693Z,11.13
2022-09-28T06:25:45.560Z,13.48
2022-09-28T06:28:14.811Z,13.05
2022-09-28T06:30:44.197Z,12.77
2022-09-28T06:33:17.366Z,10.85
2022-09-28T06:35:45.777Z,13.18
2022-09-28T06:38:14.367Z,13.23
2022-09-28T06:40:44.916Z,13.70
2022-09-28T06:43:17.312Z,10.73
2022-09-28T06:46:04.177Z,10.68
2022-09-28T06:49:01.866Z,11.55
2022-09-28T06:51:52.866Z,10.57
2022-09-28T06:54:25.946Z,9.10
2022-09-28T06:57:12.910Z,15.13
2022-09-28T06:59:41.749Z,10.48
2022-09-28T07:02:14.406Z,11.38
2022-09-28T07:07:49.729Z,10.90
2022-09-28T07:10:25.229Z,13.82
2022-09-28T07:13:05.794Z,12.50
2022-09-28T07:15:41.129Z,10.23
2022-09-28T07:18:12.669Z,9.98
2022-09-28T07:20:52.706Z,12.40
2022-09-28T07:23:22.452Z,13.07
2022-09-28T07:26:09.632Z,14.45
2022-09-28T07:28:50.380Z,12.17
2022-09-28T07:31:44.235Z,12.23
2022-09-28T07:34:43.768Z,11.25
2022-09-28T07:37:18.940Z,14.70
2022-09-28T07:40:07.187Z,13.20
2022-09-28T07:42:38.865Z,12.07
2022-09-28T07:45:07.795Z,11.70
2022-09-28T07:47:36.034Z,14.85
2022-09-28T07:50:14.496Z,10.30
2022-09-28T07:52:56.344Z,12.73
2022-09-28T07:55:33.466Z,12.27
2022-09-28T07:58:38.486Z,13.30
2022-09-28T08:01:30.658Z,12.70
2022-09-28T08:03:59.940Z,11.15
2022-09-28T08:06:35.038Z,9.45
2022-09-28T08:09:07.361Z,10.20
2022-09-28T08:12:14.016Z,11.07
2022-09-28T08:14:47.044Z,11.40
2022-09-28T08:17:35.958Z,10.43
2022-09-28T08:20:27.189Z,10.35
2022-09-28T08:22:55.313Z,12.85
2022-09-28T08:25:24.873Z,10.75
2022-09-28T08:38:04.020Z,10.32
2022-09-28T08:45:44.427Z,11.45
2022-09-28T08:56:04.658Z,10.95
2022-09-28T08:59:05.094Z,10.77
2022-09-28T09:02:27.308Z,10.70
2022-09-28T09:06:18.649Z,9.05
2022-09-28T09:22:09.446Z,12.05
2022-09-28T09:25:15.515Z,11.32
2022-09-28T09:27:55.973Z,12.65
2022-09-28T09:31:10.809Z,8.65
2022-09-28T09:34:16.698Z,11.05
2022-09-28T09:37:24.092Z,9.88
2022-09-28T09:40:56.240Z,9.60
2022-09-28T09:44:20.049Z,8.52
2022-09-28T09:48:01.433Z,11.02
2022-09-28T09:50:57.881Z,9.60
2022-09-28T09:54:10.545Z,9.30
2022-09-28T09:57:00.378Z,9.07
2022-09-28T10:00:04.078Z,7.85
2022-09-28T10:03:32.365Z,8.38
2022-09-28T10:06:31.671Z,7.10
2022-09-28T10:09:23.157Z,7.75
2022-09-28T10:11:56.072Z,8.05
2022-09-28T10:14:36.619Z,10.45
2022-09-28T10:17:13.003Z,8.50
2022-09-28T10:20:28.437Z,7.82
2022-09-28T10:23:07.724Z,6.47
2022-09-28T10:25:38.967Z,7.20
2022-09-28T10:28:43.242Z,9.43
2022-09-28T10:31:37.017Z,8.02
2022-09-28T10:34:17.650Z,6.85
2022-09-28T10:37:04.644Z,7.00
2022-09-28T10:39:57.585Z,7.68
2022-09-28T10:42:51.333Z,7.13
2022-09-28T10:45:48.671Z,4.53
2022-09-28T10:48:33.087Z,8.40
2022-09-28T10:51:17.955Z,2.92
2022-09-28T10:54:41.630Z,5.90
2022-09-28T10:57:29.359Z,4.38
2022-09-28T11:00:07.879Z,2.63
2022-09-28T11:02:44.175Z,4.03
2022-09-28T11:05:28.288Z,5.18
2022-09-28T11:08:07.009Z,3.05
2022-09-28T11:10:45.389Z,2.63
2022-09-28T11:13:19.215Z,6.00
2022-09-28T11:15:59.080Z,5.95
2022-09-28T11:18:37.686Z,6.75
2022-09-28T11:21:18.676Z,5.68
2022-09-28T11:24:19.549Z,4.53
2022-09-28T11:27:02.696Z,3.50
2022-09-28T11:29:43.509Z,3.58
2022-09-28T11:32:48.547Z,2.72
2022-09-28T11:35:54.469Z,3.08
2022-09-28T11:38:44.139Z,5.70
2022-09-28T11:42:02.846Z,3.05
2022-09-28T11:44:44.620Z,3.30
2022-09-28T11:47:33.227Z,3.85
2022-09-28T11:52:33.224Z,4.85
2022-09-28T11:55:23.212Z,5.78
2022-09-28T11:58:03.682Z,4.50
2022-09-28T12:00:42.713Z,3.63
2022-09-28T12:03:24.348Z,5.10
2022-09-28T12:06:28.104Z,4.28
2022-09-28T12:09:19.725Z,4.07
2022-09-28T12:13:06.442Z,4.32
2022-09-28T12:22:46.037Z,5.10
2022-09-28T12:26:37.337Z,4.75
2022-09-28T12:29:23.607Z,4.20
2022-09-28T12:32:31.664Z,4.43
2022-09-28T12:35:22.649Z,5.28
2022-09-28T12:37:59.035Z,3.85
2022-09-28T12:41:01.125Z,3.42
2022-09-28T12:43:45.153Z,5.13
2022-09-28T12:46:35.505Z,3.65
2022-09-28T12:57:14.630Z,6.07
2022-09-28T13:00:06.053Z,3.30
2022-09-28T13:03:02.795Z,5.05
2022-09-28T13:06:20.225Z,5.57
2022-09-28T13:09:22.399Z,4.05
2022-09-28T13:12:13.813Z,6.57
2022-09-28T13:19:20.614Z,3.97
2022-09-28T13:22:05.692Z,6.13
2022-09-28T13:24:41.754Z,3.50
2022-09-28T13:27:23.135Z,7.15
2022-09-28T13:29:55.702Z,5.40
2022-09-28T13:32:43.549Z,4.25
2022-09-28T13:35:22.371Z,3.88
2022-09-28T13:38:41.906Z,6.32
2022-09-28T13:41:29.671Z,4.38
2022-09-28T13:44:28.587Z,3.40
2022-09-28T13:48:17.955Z,4.38
2022-09-28T13:51:33.955Z,3.63
2022-09-28T13:54:41.812Z,3.92
2022-09-28T13:57:31.953Z,3.95
2022-09-28T14:04:21.343Z,4.43
2022-09-28T14:07:17.047Z,3.78
2022-09-28T14:10:45.452Z,4.93
2022-09-28T14:14:06.162Z,4.70
2022-09-28T14:16:45.293Z,4.30
2022-09-28T14:19:37.732Z,4.22
2022-09-28T14:23:26.803Z,5.57
2022-09-28T14:26:21.099Z,2.08
2022-09-28T14:29:24.183Z,3.67
2022-09-28T14:32:14.268Z,3.67
2022-09-28T14:34:47.355Z,4.15
2022-09-28T14:37:53.113Z,3.28
2022-09-28T14:40:49.576Z,5.00
2022-09-28T14:44:09.442Z,5.43
2022-09-28T14:46:48.055Z,5.18
2022-09-28T14:49:35.687Z,3.28
2022-09-28T14:52:16.136Z,6.20
2022-09-28T14:55:35.528Z,3.42
2022-09-28T15:01:22.255Z,3.30
2022-09-28T15:04:01.168Z,3.38
2022-09-28T15:07:00.187Z,3.95
2022-09-28T15:24:20.104Z,5.32
2022-09-28T15:27:40.140Z,5.53
2022-09-28T15:30:40.425Z,3.47
2022-09-28T15:33:48.077Z,4.70
2022-09-28T15:36:32.740Z,3.20
2022-09-28T15:39:31.427Z,3.50
2022-09-28T15:42:10.768Z,4.00
2022-09-28T15:45:30.800Z,3.42
2022-09-28T15:48:42.024Z,4.10
2022-09-28T15:54:35.936Z,4.70
2022-09-28T16:01:26.507Z,3.22
2022-09-28T16:04:39.814Z,3.15
2022-09-28T16:07:25.482Z,3.55
2022-09-28T16:10:34.209Z,6.55
2022-09-28T16:13:19.170Z,3.60
2022-09-28T16:16:48.278Z,4.93
2022-09-28T16:19:41.236Z,4.60
2022-09-28T16:22:28.720Z,3.35
2022-09-28T16:25:06.045Z,4.03
2022-09-28T16:28:10.371Z,6.07
2022-09-28T16:31:04.307Z,5.30
2022-09-28T16:34:02.116Z,4.38
2022-09-28T16:36:51.692Z,4.05
2022-09-28T16:39:29.797Z,4.05
2022-09-28T16:42:10.467Z,3.47
2022-09-28T16:44:53.799Z,5.10
2022-09-28T16:47:42.554Z,4.10
2022-09-28T16:50:29.253Z,5.95
2022-09-28T16:53:25.803Z,2.97
2022-09-28T16:56:01.765Z,4.78
2022-09-28T16:58:52.151Z,4.90
2022-09-28T17:01:32.982Z,5.30
2022-09-28T17:04:13.588Z,4.05
2022-09-28T17:07:03.250Z,5.93
2022-09-28T17:09:59.254Z,3.83
2022-09-28T17:12:39.763Z,4.40
2022-09-28T17:15:29.791Z,4.72
2022-09-28T17:18:23.898Z,3.28
2022-09-28T17:21:33.576Z,3.72
2022-09-28T17:24:40.688Z,4.15
2022-09-28T17:27:31.259Z,5.15
2022-09-28T17:30:38.461Z,7.03
2022-09-28T17:37:28.261Z,6.65
2022-09-28T17:40:30.575Z,4.80
2022-09-28T17:44:35.479Z,3.92
2022-09-28T17:48:41.725Z,6.95
2022-09-28T17:52:21.503Z,5.05
2022-09-28T17:59:38.556Z,5.78
2022-09-28T18:02:47.801Z,6.45
2022-09-28T18:06:46.901Z,4.43
2022-09-28T18:14:18.649Z,7.53
2022-09-28T18:28:07.316Z,6.00
2022-09-28T18:31:00.321Z,6.13
2022-09-28T18:33:43.810Z,7.75
2022-09-28T18:36:51.917Z,5.20
2022-09-28T18:39:26.235Z,6.07
2022-09-28T18:42:04.445Z,7.55
2022-09-28T18:44:45.317Z,7.18
2022-09-28T18:47:39.605Z,9.70
2022-09-28T18:50:33.075Z,6.05
2022-09-28T18:53:40.060Z,6.05
2022-09-28T18:56:29.378Z,6.05
2022-09-28T18:59:11.956Z,6.25
2022-09-28T19:01:56.213Z,7.85
2022-09-28T19:04:50.372Z,9.35
2022-09-28T19:07:23.467Z,9.32
2022-09-28T19:10:09.145Z,9.27
2022-09-28T19:13:08.142Z,11.52
2022-09-28T19:19:40.852Z,13.57
2022-09-28T19:22:35.548Z,11.80
2022-09-28T19:25:16.383Z,12.57
2022-09-28T19:27:52.376Z,12.55
2022-09-28T19:30:36.769Z,12.55
2022-09-28T19:33:30.609Z,10.75
2022-09-28T19:36:54.187Z,11.52
2022-09-28T19:39:33.930Z,11.23
2022-09-28T19:42:14.184Z,13.38
2022-09-28T19:45:08.170Z,12.05
2022-09-28T19:47:42.162Z,17.48
2022-09-28T19:50:33.072Z,12.50
2022-09-28T19:53:14.143Z,11.38
2022-09-28T19:56:02.305Z,13.40
2022-09-28T19:58:36.812Z,13.48
2022-09-28T20:01:12.495Z,11.32
2022-09-28T20:04:14.535Z,11.60
2022-09-28T20:07:46.616Z,18.05
2022-09-28T20:11:28.318Z,12.57
2022-09-28T20:15:33.490Z,12.52
2022-09-28T20:19:37.522Z,14.27
2022-09-28T20:27:39.475Z,10.77
2022-09-28T20:35:38.726Z,10.23
2022-09-28T20:43:38.269Z,11.18
2022-09-28T20:46:22.803Z,9.65
2022-09-28T20:49:06.160Z,11.15
2022-09-28T20:52:03.721Z,12.90
2022-09-28T20:54:34.257Z,11.98
2022-09-28T20:57:17.987Z,13.23
2022-09-28T20:59:55.008Z,13.70
2022-09-28T21:02:27.886Z,14.07
2022-09-28T21:05:11.389Z,12.50
2022-09-28T21:07:54.521Z,10.38
2022-09-28T21:11:04.061Z,15.73
2022-09-28T21:13:49.845Z,13.30
2022-09-28T21:16:30.620Z,13.90
2022-09-28T21:19:09.956Z,12.20
2022-09-28T21:22:05.573Z,13.65
2022-09-28T21:28:40.333Z,11.85
2022-09-28T21:31:39.622Z,12.02
2022-09-28T21:35:19.385Z,12.82
2022-09-28T21:38:08.912Z,11.20
2022-09-28T21:40:51.204Z,13.13
